sensor_id;sensor_type;location;lat;lon;timestamp;pressure;altitude;pressure_sealevel;temperature;humidity
76358;BME280;65185;21.060;105.826;2024-03-29T00:00:07;101350.34;;;24.28;100.00
76358;BME280;65185;21.060;105.826;2024-03-29T00:02:34;101348.44;;;24.30;100.00
76358;BME280;65185;21.060;105.826;2024-03-29T00:05:01;101339.56;;;24.31;100.00
76358;BME280;65185;21.060;105.826;2024-03-29T00:07:29;101335.94;;;24.33;100.00
76358;BME280;65185;21.060;105.826;2024-03-29T00:09:56;101338.41;;;24.36;100.00
76358;BME280;65185;21.060;105.826;2024-03-29T00:12:23;101340.03;;;24.39;100.00
76358;BME280;65185;21.060;105.826;2024-03-29T00:14:50;101332.09;;;24.39;100.00
76358;BME280;65185;21.060;105.826;2024-03-29T00:17:17;101339.97;;;24.40;100.00
76358;BME280;65185;21.060;105.826;2024-03-29T00:19:44;101345.19;;;24.42;100.00
76358;BME280;65185;21.060;105.826;2024-03-29T00:22:11;101340.75;;;24.42;100.00
76358;BME280;65185;21.060;105.826;2024-03-29T00:24:38;101342.34;;;24.45;100.00
76358;BME280;65185;21.060;105.826;2024-03-29T00:27:05;101345.69;;;24.48;100.00
76358;BME280;65185;21.060;105.826;2024-03-29T00:29:32;101345.63;;;24.50;100.00
76358;BME280;65185;21.060;105.826;2024-03-29T00:31:59;101347.25;;;24.52;100.00
76358;BME280;65185;21.060;105.826;2024-03-29T00:34:26;101363.16;;;24.52;100.00
76358;BME280;65185;21.060;105.826;2024-03-29T00:36:53;101360.50;;;24.52;100.00
76358;BME280;65185;21.060;105.826;2024-03-29T00:39:20;101366.59;;;24.54;100.00
76358;BME280;65185;21.060;105.826;2024-03-29T00:41:47;101378.13;;;24.53;100.00
76358;BME280;65185;21.060;105.826;2024-03-29T00:44:14;101367.44;;;24.55;100.00
76358;BME280;65185;21.060;105.826;2024-03-29T00:46:41;101370.00;;;24.56;100.00
76358;BME280;65185;21.060;105.826;2024-03-29T00:49:08;101377.00;;;24.57;100.00
76358;BME280;65185;21.060;105.826;2024-03-29T00:51:35;101383.25;;;24.56;100.00
76358;BME280;65185;21.060;105.826;2024-03-29T00:54:02;101393.78;;;24.58;100.00
76358;BME280;65185;21.060;105.826;2024-03-29T00:56:29;101401.63;;;24.59;100.00
76358;BME280;65185;21.060;105.826;2024-03-29T00:58:56;101406.03;;;24.60;100.00
76358;BME280;65185;21.060;105.826;2024-03-29T01:01:23;101406.03;;;24.60;100.00
76358;BME280;65185;21.060;105.826;2024-03-29T01:03:50;101404.22;;;24.61;100.00
76358;BME280;65185;21.060;105.826;2024-03-29T01:06:18;101407.59;;;24.64;100.00
76358;BME280;65185;21.060;105.826;2024-03-29T01:08:45;101410.25;;;24.64;100.00
76358;BME280;65185;21.060;105.826;2024-03-29T01:11:12;101409.28;;;24.65;100.00
76358;BME280;65185;21.060;105.826;2024-03-29T01:13:39;101414.41;;;24.68;100.00
76358;BME280;65185;21.060;105.826;2024-03-29T01:16:06;101412.56;;;24.70;100.00
76358;BME280;65185;21.060;105.826;2024-03-29T01:18:33;101419.53;;;24.73;100.00
76358;BME280;65185;21.060;105.826;2024-03-29T01:21:00;101422.97;;;24.75;100.00
76358;BME280;65185;21.060;105.826;2024-03-29T01:23:27;101424.50;;;24.79;100.00
76358;BME280;65185;21.060;105.826;2024-03-29T01:25:54;101447.19;;;24.85;100.00
76358;BME280;65185;21.060;105.826;2024-03-29T01:28:21;101450.63;;;24.87;100.00
76358;BME280;65185;21.060;105.826;2024-03-29T01:30:54;101465.41;;;24.91;100.00
76358;BME280;65185;21.060;105.826;2024-03-29T01:33:21;101463.41;;;24.96;100.00
76358;BME280;65185;21.060;105.826;2024-03-29T01:35:48;101450.91;;;24.98;100.00
76358;BME280;65185;21.060;105.826;2024-03-29T01:38:15;101441.69;;;25.05;100.00
76358;BME280;65185;21.060;105.826;2024-03-29T01:40:43;101443.94;;;25.12;100.00
76358;BME280;65185;21.060;105.826;2024-03-29T01:43:10;101445.41;;;25.18;100.00
76358;BME280;65185;21.060;105.826;2024-03-29T01:45:41;101449.53;;;25.23;100.00
76358;BME280;65185;21.060;105.826;2024-03-29T01:48:12;101450.03;;;25.30;100.00
76358;BME280;65185;21.060;105.826;2024-03-29T01:50:40;101450.75;;;25.33;100.00
76358;BME280;65185;21.060;105.826;2024-03-29T01:53:08;101447.91;;;25.36;100.00
76358;BME280;65185;21.060;105.826;2024-03-29T01:55:36;101444.28;;;25.39;100.00
76358;BME280;65185;21.060;105.826;2024-03-29T01:58:03;101449.50;;;25.40;100.00
76358;BME280;65185;21.060;105.826;2024-03-29T02:00:34;101452.16;;;25.40;100.00
76358;BME280;65185;21.060;105.826;2024-03-29T02:03:04;101462.63;;;25.43;100.00
76358;BME280;65185;21.060;105.826;2024-03-29T02:05:41;101482.09;;;25.42;100.00
76358;BME280;65185;21.060;105.826;2024-03-29T02:08:10;101480.31;;;25.43;100.00
76358;BME280;65185;21.060;105.826;2024-03-29T02:10:38;101482.03;;;25.44;100.00
76358;BME280;65185;21.060;105.826;2024-03-29T02:13:05;101485.53;;;25.44;100.00
76358;BME280;65185;21.060;105.826;2024-03-29T02:15:32;101481.97;;;25.45;100.00
76358;BME280;65185;21.060;105.826;2024-03-29T02:17:59;101473.91;;;25.47;100.00
76358;BME280;65185;21.060;105.826;2024-03-29T02:20:26;101474.59;;;25.50;100.00
76358;BME280;65185;21.060;105.826;2024-03-29T02:23:18;101464.69;;;25.54;100.00
76358;BME280;65185;21.060;105.826;2024-03-29T02:25:46;101458.41;;;25.55;100.00
76358;BME280;65185;21.060;105.826;2024-03-29T02:28:13;101458.16;;;25.59;100.00
76358;BME280;65185;21.060;105.826;2024-03-29T02:30:40;101448.91;;;25.66;100.00
76358;BME280;65185;21.060;105.826;2024-03-29T02:33:07;101461.97;;;25.71;100.00
76358;BME280;65185;21.060;105.826;2024-03-29T02:35:34;101455.69;;;25.72;100.00
76358;BME280;65185;21.060;105.826;2024-03-29T02:38:01;101453.91;;;25.73;100.00
76358;BME280;65185;21.060;105.826;2024-03-29T02:40:28;101454.75;;;25.73;100.00
76358;BME280;65185;21.060;105.826;2024-03-29T02:42:55;101459.13;;;25.74;100.00
76358;BME280;65185;21.060;105.826;2024-03-29T02:45:22;101456.56;;;25.73;100.00
76358;BME280;65185;21.060;105.826;2024-03-29T02:47:49;101446.84;;;25.72;100.00
76358;BME280;65185;21.060;105.826;2024-03-29T02:50:16;101444.16;;;25.73;100.00
76358;BME280;65185;21.060;105.826;2024-03-29T02:52:44;101452.03;;;25.75;100.00
76358;BME280;65185;21.060;105.826;2024-03-29T02:55:11;101460.81;;;25.75;100.00
76358;BME280;65185;21.060;105.826;2024-03-29T02:57:38;101462.38;;;25.79;100.00
76358;BME280;65185;21.060;105.826;2024-03-29T03:00:06;101450.88;;;25.79;100.00
76358;BME280;65185;21.060;105.826;2024-03-29T03:02:40;101452.69;;;25.78;100.00
76358;BME280;65185;21.060;105.826;2024-03-29T03:05:08;101451.06;;;25.76;100.00
76358;BME280;65185;21.060;105.826;2024-03-29T03:07:35;101452.16;;;25.72;100.00
76358;BME280;65185;21.060;105.826;2024-03-29T03:10:20;101462.00;;;25.69;100.00
76358;BME280;65185;21.060;105.826;2024-03-29T03:13:05;101464.84;;;25.66;100.00
76358;BME280;65185;21.060;105.826;2024-03-29T03:15:32;101455.34;;;25.62;100.00
76358;BME280;65185;21.060;105.826;2024-03-29T03:17:59;101454.66;;;25.59;100.00
76358;BME280;65185;21.060;105.826;2024-03-29T03:20:26;101461.06;;;25.55;100.00
76358;BME280;65185;21.060;105.826;2024-03-29T03:22:58;101464.84;;;25.51;100.00
76358;BME280;65185;21.060;105.826;2024-03-29T03:25:28;101458.00;;;25.47;100.00
76358;BME280;65185;21.060;105.826;2024-03-29T03:27:55;101467.06;;;25.43;100.00
76358;BME280;65185;21.060;105.826;2024-03-29T03:30:22;101464.50;;;25.41;100.00
76358;BME280;65185;21.060;105.826;2024-03-29T03:32:49;101470.81;;;25.39;100.00
76358;BME280;65185;21.060;105.826;2024-03-29T03:35:16;101469.03;;;25.39;100.00
76358;BME280;65185;21.060;105.826;2024-03-29T03:37:43;101466.47;;;25.38;100.00
76358;BME280;65185;21.060;105.826;2024-03-29T03:40:11;101468.38;;;25.34;100.00
76358;BME280;65185;21.060;105.826;2024-03-29T03:42:38;101470.16;;;25.34;100.00
76358;BME280;65185;21.060;105.826;2024-03-29T03:45:05;101477.19;;;25.35;100.00
76358;BME280;65185;21.060;105.826;2024-03-29T03:47:32;101473.69;;;25.34;100.00
76358;BME280;65185;21.060;105.826;2024-03-29T03:49:59;101468.38;;;25.34;100.00
76358;BME280;65185;21.060;105.826;2024-03-29T03:52:26;101471.78;;;25.36;100.00
76358;BME280;65185;21.060;105.826;2024-03-29T03:54:53;101463.63;;;25.41;100.00
76358;BME280;65185;21.060;105.826;2024-03-29T03:57:20;101465.00;;;25.48;100.00
76358;BME280;65185;21.060;105.826;2024-03-29T03:59:49;101460.28;;;25.53;100.00
76358;BME280;65185;21.060;105.826;2024-03-29T04:02:16;101463.66;;;25.56;100.00
76358;BME280;65185;21.060;105.826;2024-03-29T04:04:48;101469.66;;;25.60;100.00
76358;BME280;65185;21.060;105.826;2024-03-29T04:07:15;101458.94;;;25.61;100.00
76358;BME280;65185;21.060;105.826;2024-03-29T04:09:42;101460.41;;;25.67;100.00
76358;BME280;65185;21.060;105.826;2024-03-29T04:12:09;101453.91;;;25.73;100.00
76358;BME280;65185;21.060;105.826;2024-03-29T04:14:36;101442.22;;;25.75;100.00
76358;BME280;65185;21.060;105.826;2024-03-29T04:17:03;101445.66;;;25.77;100.00
76358;BME280;65185;21.060;105.826;2024-03-29T04:19:30;101444.75;;;25.78;100.00
76358;BME280;65185;21.060;105.826;2024-03-29T04:21:57;101436.69;;;25.80;100.00
76358;BME280;65185;21.060;105.826;2024-03-29T04:24:24;101438.47;;;25.79;100.00
76358;BME280;65185;21.060;105.826;2024-03-29T04:26:51;101435.03;;;25.77;100.00
76358;BME280;65185;21.060;105.826;2024-03-29T04:29:18;101430.78;;;25.75;100.00
76358;BME280;65185;21.060;105.826;2024-03-29T04:31:48;101422.03;;;25.73;100.00
76358;BME280;65185;21.060;105.826;2024-03-29T04:34:16;101415.00;;;25.72;100.00
76358;BME280;65185;21.060;105.826;2024-03-29T04:36:43;101409.69;;;25.72;100.00
76358;BME280;65185;21.060;105.826;2024-03-29T04:39:10;101401.06;;;25.68;100.00
76358;BME280;65185;21.060;105.826;2024-03-29T04:41:37;101391.38;;;25.67;100.00
76358;BME280;65185;21.060;105.826;2024-03-29T04:44:04;101394.13;;;25.65;100.00
76358;BME280;65185;21.060;105.826;2024-03-29T04:46:33;101375.81;;;25.61;100.00
76358;BME280;65185;21.060;105.826;2024-03-29T04:49:00;101366.13;;;25.60;100.00
76358;BME280;65185;21.060;105.826;2024-03-29T04:51:27;101350.28;;;25.58;100.00
76358;BME280;65185;21.060;105.826;2024-03-29T04:53:54;101348.50;;;25.59;100.00
76358;BME280;65185;21.060;105.826;2024-03-29T04:56:21;101342.41;;;25.57;100.00
76358;BME280;65185;21.060;105.826;2024-03-29T04:58:48;101335.41;;;25.56;100.00
76358;BME280;65185;21.060;105.826;2024-03-29T05:01:15;101330.09;;;25.56;100.00
76358;BME280;65185;21.060;105.826;2024-03-29T05:03:42;101323.81;;;25.57;100.00
76358;BME280;65185;21.060;105.826;2024-03-29T05:06:09;101311.44;;;25.57;100.00
76358;BME280;65185;21.060;105.826;2024-03-29T05:08:36;101308.88;;;25.56;100.00
76358;BME280;65185;21.060;105.826;2024-03-29T05:11:03;101303.72;;;25.53;100.00
76358;BME280;65185;21.060;105.826;2024-03-29T05:13:31;101303.81;;;25.51;100.00
76358;BME280;65185;21.060;105.826;2024-03-29T05:15:59;101303.03;;;25.49;100.00
76358;BME280;65185;21.060;105.826;2024-03-29T05:18:26;101291.66;;;25.47;100.00
76358;BME280;65185;21.060;105.826;2024-03-29T05:20:53;101285.50;;;25.47;100.00
76358;BME280;65185;21.060;105.826;2024-03-29T05:23:20;101285.59;;;25.45;100.00
76358;BME280;65185;21.060;105.826;2024-03-29T05:25:47;101264.44;;;25.44;100.00
76358;BME280;65185;21.060;105.826;2024-03-29T05:28:15;101253.75;;;25.45;100.00
76358;BME280;65185;21.060;105.826;2024-03-29T05:30:43;101253.00;;;25.43;100.00
76358;BME280;65185;21.060;105.826;2024-03-29T05:33:10;101249.47;;;25.43;100.00
76358;BME280;65185;21.060;105.826;2024-03-29T05:35:37;101257.53;;;25.41;100.00
76358;BME280;65185;21.060;105.826;2024-03-29T05:38:04;101258.53;;;25.39;100.00
76358;BME280;65185;21.060;105.826;2024-03-29T05:40:33;101272.78;;;25.38;100.00
76358;BME280;65185;21.060;105.826;2024-03-29T05:43:00;101280.03;;;25.34;100.00
76358;BME280;65185;21.060;105.826;2024-03-29T05:45:29;101308.66;;;25.28;100.00
76358;BME280;65185;21.060;105.826;2024-03-29T05:47:58;101340.84;;;25.22;100.00
76358;BME280;65185;21.060;105.826;2024-03-29T05:50:26;101359.59;;;25.19;100.00
76358;BME280;65185;21.060;105.826;2024-03-29T05:52:53;101364.22;;;25.15;100.00
76358;BME280;65185;21.060;105.826;2024-03-29T05:55:20;101374.22;;;25.10;100.00
76358;BME280;65185;21.060;105.826;2024-03-29T05:57:47;101362.91;;;25.07;100.00
76358;BME280;65185;21.060;105.826;2024-03-29T06:00:15;101352.31;;;25.07;100.00
76358;BME280;65185;21.060;105.826;2024-03-29T06:02:43;101337.75;;;24.98;100.00
76358;BME280;65185;21.060;105.826;2024-03-29T06:05:14;101344.50;;;24.88;100.00
76358;BME280;65185;21.060;105.826;2024-03-29T06:07:41;101356.38;;;24.81;100.00
76358;BME280;65185;21.060;105.826;2024-03-29T06:10:08;101345.44;;;24.70;100.00
76358;BME280;65185;21.060;105.826;2024-03-29T06:12:37;101334.63;;;24.57;100.00
76358;BME280;65185;21.060;105.826;2024-03-29T06:15:07;101324.38;;;24.51;100.00
76358;BME280;65185;21.060;105.826;2024-03-29T06:17:52;101311.59;;;24.42;100.00
76358;BME280;65185;21.060;105.826;2024-03-29T06:20:19;101311.75;;;24.39;100.00
76358;BME280;65185;21.060;105.826;2024-03-29T06:22:46;101300.44;;;24.36;100.00
76358;BME280;65185;21.060;105.826;2024-03-29T06:25:14;101284.13;;;24.28;100.00
76358;BME280;65185;21.060;105.826;2024-03-29T06:27:42;101288.69;;;24.24;100.00
76358;BME280;65185;21.060;105.826;2024-03-29T06:30:15;101276.81;;;24.16;100.00
76358;BME280;65185;21.060;105.826;2024-03-29T06:32:45;101273.53;;;24.11;100.00
76358;BME280;65185;21.060;105.826;2024-03-29T06:35:12;101258.66;;;24.08;100.00
76358;BME280;65185;21.060;105.826;2024-03-29T06:37:40;101242.94;;;24.05;100.00
76358;BME280;65185;21.060;105.826;2024-03-29T06:40:09;101222.13;;;23.98;100.00
76358;BME280;65185;21.060;105.826;2024-03-29T06:42:36;101219.69;;;23.93;100.00
76358;BME280;65185;21.060;105.826;2024-03-29T06:45:03;101225.25;;;23.89;100.00
76358;BME280;65185;21.060;105.826;2024-03-29T06:47:32;101213.81;;;23.88;100.00
76358;BME280;65185;21.060;105.826;2024-03-29T06:49:59;101206.72;;;23.89;100.00
76358;BME280;65185;21.060;105.826;2024-03-29T06:52:26;101205.69;;;23.91;100.00
76358;BME280;65185;21.060;105.826;2024-03-29T06:54:53;101203.75;;;23.95;100.00
76358;BME280;65185;21.060;105.826;2024-03-29T06:57:20;101204.47;;;23.98;100.00
76358;BME280;65185;21.060;105.826;2024-03-29T06:59:55;101191.59;;;24.08;100.00
76358;BME280;65185;21.060;105.826;2024-03-29T07:02:22;101189.69;;;24.11;100.00
76358;BME280;65185;21.060;105.826;2024-03-29T07:04:49;101185.59;;;24.21;100.00
76358;BME280;65185;21.060;105.826;2024-03-29T07:07:16;101186.81;;;24.31;100.00
76358;BME280;65185;21.060;105.826;2024-03-29T07:09:43;101186.47;;;24.37;100.00
76358;BME280;65185;21.060;105.826;2024-03-29T07:12:11;101192.38;;;24.42;100.00
76358;BME280;65185;21.060;105.826;2024-03-29T07:14:38;101184.19;;;24.47;100.00
76358;BME280;65185;21.060;105.826;2024-03-29T07:17:05;101182.06;;;24.53;100.00
76358;BME280;65185;21.060;105.826;2024-03-29T07:19:32;101177.94;;;24.63;100.00
76358;BME280;65185;21.060;105.826;2024-03-29T07:21:59;101182.06;;;24.69;100.00
76358;BME280;65185;21.060;105.826;2024-03-29T07:24:26;101175.69;;;24.73;100.00
76358;BME280;65185;21.060;105.826;2024-03-29T07:26:53;101162.16;;;24.78;100.00
76358;BME280;65185;21.060;105.826;2024-03-29T07:29:20;101154.91;;;24.81;100.00
76358;BME280;65185;21.060;105.826;2024-03-29T07:31:47;101144.38;;;24.80;100.00
76358;BME280;65185;21.060;105.826;2024-03-29T07:34:14;101154.06;;;24.81;100.00
76358;BME280;65185;21.060;105.826;2024-03-29T07:36:41;101154.97;;;24.80;100.00
76358;BME280;65185;21.060;105.826;2024-03-29T07:39:08;101147.97;;;24.79;100.00
76358;BME280;65185;21.060;105.826;2024-03-29T07:41:35;101149.09;;;24.75;100.00
76358;BME280;65185;21.060;105.826;2024-03-29T07:44:02;101153.75;;;24.69;100.00
76358;BME280;65185;21.060;105.826;2024-03-29T07:46:34;101172.66;;;24.63;100.00
76358;BME280;65185;21.060;105.826;2024-03-29T07:49:01;101148.13;;;24.60;100.00
76358;BME280;65185;21.060;105.826;2024-03-29T07:51:29;101128.88;;;24.56;100.00
76358;BME280;65185;21.060;105.826;2024-03-29T07:53:57;101124.28;;;24.60;100.00
76358;BME280;65185;21.060;105.826;2024-03-29T07:56:24;101123.50;;;24.58;100.00
76358;BME280;65185;21.060;105.826;2024-03-29T07:58:52;101133.31;;;24.56;100.00
76358;BME280;65185;21.060;105.826;2024-03-29T08:01:23;101144.38;;;24.64;100.00
76358;BME280;65185;21.060;105.826;2024-03-29T08:03:51;101145.56;;;24.74;100.00
76358;BME280;65185;21.060;105.826;2024-03-29T08:06:20;101137.88;;;24.69;100.00
76358;BME280;65185;21.060;105.826;2024-03-29T08:08:50;101126.25;;;24.56;100.00
76358;BME280;65185;21.060;105.826;2024-03-29T08:11:20;101130.09;;;24.51;100.00
76358;BME280;65185;21.060;105.826;2024-03-29T08:13:47;101126.84;;;24.46;100.00
76358;BME280;65185;21.060;105.826;2024-03-29T08:16:14;101119.03;;;24.43;100.00
76358;BME280;65185;21.060;105.826;2024-03-29T08:18:45;101116.41;;;24.43;100.00
76358;BME280;65185;21.060;105.826;2024-03-29T08:21:12;101117.44;;;24.40;100.00
76358;BME280;65185;21.060;105.826;2024-03-29T08:23:42;101123.84;;;24.36;100.00
76358;BME280;65185;21.060;105.826;2024-03-29T08:26:13;101115.91;;;24.36;100.00
76358;BME280;65185;21.060;105.826;2024-03-29T08:28:40;101122.06;;;24.37;100.00
76358;BME280;65185;21.060;105.826;2024-03-29T08:31:08;101109.81;;;24.34;100.00
76358;BME280;65185;21.060;105.826;2024-03-29T08:33:38;101119.56;;;24.34;100.00
76358;BME280;65185;21.060;105.826;2024-03-29T08:36:06;101119.66;;;24.32;100.00
76358;BME280;65185;21.060;105.826;2024-03-29T08:38:35;101114.34;;;24.32;100.00
76358;BME280;65185;21.060;105.826;2024-03-29T08:41:02;101096.75;;;24.31;100.00
76358;BME280;65185;21.060;105.826;2024-03-29T08:43:30;101098.38;;;24.34;100.00
76358;BME280;65185;21.060;105.826;2024-03-29T08:45:57;101095.56;;;24.37;100.00
76358;BME280;65185;21.060;105.826;2024-03-29T08:48:24;101095.47;;;24.38;100.00
76358;BME280;65185;21.060;105.826;2024-03-29T08:50:51;101097.94;;;24.41;100.00
76358;BME280;65185;21.060;105.826;2024-03-29T08:53:18;101089.91;;;24.43;100.00
76358;BME280;65185;21.060;105.826;2024-03-29T08:55:47;101088.91;;;24.45;100.00
76358;BME280;65185;21.060;105.826;2024-03-29T08:58:17;101093.25;;;24.46;100.00
76358;BME280;65185;21.060;105.826;2024-03-29T09:00:53;101103.59;;;24.51;100.00
76358;BME280;65185;21.060;105.826;2024-03-29T09:03:21;101103.50;;;24.52;100.00
76358;BME280;65185;21.060;105.826;2024-03-29T09:05:49;101096.41;;;24.53;100.00
76358;BME280;65185;21.060;105.826;2024-03-29T09:08:17;101104.19;;;24.56;100.00
76358;BME280;65185;21.060;105.826;2024-03-29T09:10:44;101090.94;;;24.56;100.00
76358;BME280;65185;21.060;105.826;2024-03-29T09:13:11;101096.13;;;24.57;100.00
76358;BME280;65185;21.060;105.826;2024-03-29T09:15:39;101077.53;;;24.59;100.00
76358;BME280;65185;21.060;105.826;2024-03-29T09:18:06;101073.06;;;24.59;100.00
76358;BME280;65185;21.060;105.826;2024-03-29T09:20:37;101065.22;;;24.58;100.00
76358;BME280;65185;21.060;105.826;2024-03-29T09:23:04;101060.91;;;24.55;100.00
76358;BME280;65185;21.060;105.826;2024-03-29T09:25:31;101066.31;;;24.54;100.00
76358;BME280;65185;21.060;105.826;2024-03-29T09:27:58;101064.63;;;24.53;100.00
76358;BME280;65185;21.060;105.826;2024-03-29T09:30:25;101062.91;;;24.52;100.00
76358;BME280;65185;21.060;105.826;2024-03-29T09:32:53;101057.59;;;24.52;100.00
76358;BME280;65185;21.060;105.826;2024-03-29T09:35:20;101060.25;;;24.52;100.00
76358;BME280;65185;21.060;105.826;2024-03-29T09:37:47;101060.25;;;24.52;100.00
76358;BME280;65185;21.060;105.826;2024-03-29T09:40:14;101063.00;;;24.50;100.00
76358;BME280;65185;21.060;105.826;2024-03-29T09:42:43;101058.56;;;24.51;100.00
76358;BME280;65185;21.060;105.826;2024-03-29T09:45:10;101081.53;;;24.50;100.00
76358;BME280;65185;21.060;105.826;2024-03-29T09:47:38;101068.28;;;24.50;100.00
76358;BME280;65185;21.060;105.826;2024-03-29T09:50:08;101078.78;;;24.52;100.00
76358;BME280;65185;21.060;105.826;2024-03-29T09:52:35;101081.44;;;24.52;100.00
76358;BME280;65185;21.060;105.826;2024-03-29T09:55:04;101078.88;;;24.50;100.00
76358;BME280;65185;21.060;105.826;2024-03-29T09:57:33;101081.72;;;24.47;100.00
76358;BME280;65185;21.060;105.826;2024-03-29T10:00:00;101087.88;;;24.48;100.00
76358;BME280;65185;21.060;105.826;2024-03-29T10:02:31;101085.22;;;24.48;100.00
76358;BME280;65185;21.060;105.826;2024-03-29T10:04:59;101089.66;;;24.47;100.00
76358;BME280;65185;21.060;105.826;2024-03-29T10:07:30;101087.09;;;24.46;100.00
76358;BME280;65185;21.060;105.826;2024-03-29T10:09:59;101094.19;;;24.45;100.00
76358;BME280;65185;21.060;105.826;2024-03-29T10:12:28;101070.44;;;24.44;100.00
76358;BME280;65185;21.060;105.826;2024-03-29T10:14:56;101069.56;;;24.43;100.00
76358;BME280;65185;21.060;105.826;2024-03-29T10:17:45;101055.56;;;24.41;100.00
76358;BME280;65185;21.060;105.826;2024-03-29T10:20:12;101045.94;;;24.40;100.00
76358;BME280;65185;21.060;105.826;2024-03-29T10:22:42;101040.72;;;24.39;100.00
76358;BME280;65185;21.060;105.826;2024-03-29T10:25:15;101052.16;;;24.39;100.00
76358;BME280;65185;21.060;105.826;2024-03-29T10:27:43;101062.66;;;24.41;100.00
76358;BME280;65185;21.060;105.826;2024-03-29T10:30:10;101059.16;;;24.40;100.00
76358;BME280;65185;21.060;105.826;2024-03-29T10:32:43;101054.88;;;24.38;100.00
76358;BME280;65185;21.060;105.826;2024-03-29T10:35:11;101057.63;;;24.36;100.00
76358;BME280;65185;21.060;105.826;2024-03-29T10:37:38;101059.41;;;24.36;100.00
76358;BME280;65185;21.060;105.826;2024-03-29T10:40:10;101055.91;;;24.35;100.00
76358;BME280;65185;21.060;105.826;2024-03-29T10:42:41;101054.97;;;24.36;100.00
76358;BME280;65185;21.060;105.826;2024-03-29T10:45:09;101055.91;;;24.35;100.00
76358;BME280;65185;21.060;105.826;2024-03-29T10:47:36;101059.41;;;24.36;100.00
76358;BME280;65185;21.060;105.826;2024-03-29T10:50:04;101066.50;;;24.35;100.00
76358;BME280;65185;21.060;105.826;2024-03-29T10:52:32;101070.19;;;24.33;100.00
76358;BME280;65185;21.060;105.826;2024-03-29T10:55:00;101075.50;;;24.33;100.00
76358;BME280;65185;21.060;105.826;2024-03-29T10:57:28;101087.28;;;24.27;100.00
76358;BME280;65185;21.060;105.826;2024-03-29T11:00:25;101090.25;;;24.21;100.00
76358;BME280;65185;21.060;105.826;2024-03-29T11:05:48;101089.25;;;24.24;100.00
76358;BME280;65185;21.060;105.826;2024-03-29T11:08:24;101086.69;;;24.22;100.00
76358;BME280;65185;21.060;105.826;2024-03-29T11:10:58;101078.78;;;24.21;100.00
76358;BME280;65185;21.060;105.826;2024-03-29T11:16:11;101092.31;;;24.16;100.00
76358;BME280;65185;21.060;105.826;2024-03-29T11:18:39;101081.72;;;24.16;100.00
76358;BME280;65185;21.060;105.826;2024-03-29T11:21:07;101080.06;;;24.14;100.00
76358;BME280;65185;21.060;105.826;2024-03-29T11:23:36;101085.38;;;24.14;100.00
76358;BME280;65185;21.060;105.826;2024-03-29T11:26:03;101087.25;;;24.12;100.00
76358;BME280;65185;21.060;105.826;2024-03-29T11:28:35;101086.47;;;24.10;100.00
76358;BME280;65185;21.060;105.826;2024-03-29T11:31:05;101081.19;;;24.10;100.00
76358;BME280;65185;21.060;105.826;2024-03-29T11:36:06;101104.50;;;24.03;100.00
76358;BME280;65185;21.060;105.826;2024-03-29T11:38:35;101121.16;;;24.05;100.00
76358;BME280;65185;21.060;105.826;2024-03-29T11:41:02;101132.75;;;24.03;100.00
76358;BME280;65185;21.060;105.826;2024-03-29T11:43:33;101127.59;;;24.00;100.00
76358;BME280;65185;21.060;105.826;2024-03-29T11:46:02;101131.06;;;24.02;100.00
76358;BME280;65185;21.060;105.826;2024-03-29T11:48:30;101150.56;;;23.99;100.00
76358;BME280;65185;21.060;105.826;2024-03-29T11:51:01;101159.47;;;23.98;100.00
76358;BME280;65185;21.060;105.826;2024-03-29T11:53:28;101167.53;;;23.95;100.00
76358;BME280;65185;21.060;105.826;2024-03-29T11:56:00;101165.84;;;23.94;100.00
76358;BME280;65185;21.060;105.826;2024-03-29T11:58:29;101148.09;;;23.96;100.00
76358;BME280;65185;21.060;105.826;2024-03-29T12:00:57;101156.88;;;23.97;100.00
76358;BME280;65185;21.060;105.826;2024-03-29T12:03:26;101158.59;;;23.98;100.00
76358;BME280;65185;21.060;105.826;2024-03-29T12:05:55;101158.50;;;23.99;100.00
76358;BME280;65185;21.060;105.826;2024-03-29T12:08:32;101155.72;;;24.02;100.00
76358;BME280;65185;21.060;105.826;2024-03-29T12:11:00;101161.72;;;24.06;100.00
76358;BME280;65185;21.060;105.826;2024-03-29T12:13:28;101164.38;;;24.06;100.00
76358;BME280;65185;21.060;105.826;2024-03-29T12:15:56;101164.28;;;24.07;100.00
76358;BME280;65185;21.060;105.826;2024-03-29T12:18:24;101172.16;;;24.09;100.00
76358;BME280;65185;21.060;105.826;2024-03-29T12:20:52;101169.31;;;24.12;100.00
76358;BME280;65185;21.060;105.826;2024-03-29T12:23:21;101173.69;;;24.13;100.00
76358;BME280;65185;21.060;105.826;2024-03-29T12:25:50;101179.78;;;24.15;100.00
76358;BME280;65185;21.060;105.826;2024-03-29T12:28:18;101180.00;;;24.10;100.00
76358;BME280;65185;21.060;105.826;2024-03-29T12:30:46;101185.47;;;24.07;100.00
76358;BME280;65185;21.060;105.826;2024-03-29T12:33:15;101179.63;;;24.01;100.00